sensor_id;sensor_type;location;lat;lon;timestamp;temperature;humidity
43995;DHT22;51687;52.160;5.298;2022-11-20T00:01:20;9.70;39.50
43995;DHT22;51687;52.160;5.298;2022-11-20T00:03:48;9.90;39.30
43995;DHT22;51687;52.160;5.298;2022-11-20T00:06:16;10.00;39.10
43995;DHT22;51687;52.160;5.298;2022-11-20T00:08:44;10.00;38.70
43995;DHT22;51687;52.160;5.298;2022-11-20T00:11:16;9.90;39.50
43995;DHT22;51687;52.160;5.298;2022-11-20T00:13:44;9.80;38.50
43995;DHT22;51687;52.160;5.298;2022-11-20T00:16:14;9.70;38.70
43995;DHT22;51687;52.160;5.298;2022-11-20T00:18:41;9.70;38.70
43995;DHT22;51687;52.160;5.298;2022-11-20T00:21:25;9.60;38.60
43995;DHT22;51687;52.160;5.298;2022-11-20T00:23:54;9.50;38.40
43995;DHT22;51687;52.160;5.298;2022-11-20T00:26:23;9.50;38.40
43995;DHT22;51687;52.160;5.298;2022-11-20T00:28:55;9.40;38.40
43995;DHT22;51687;52.160;5.298;2022-11-20T00:31:23;9.40;38.50
43995;DHT22;51687;52.160;5.298;2022-11-20T00:33:50;9.60;38.80
43995;DHT22;51687;52.160;5.298;2022-11-20T00:36:22;9.80;38.70
43995;DHT22;51687;52.160;5.298;2022-11-20T00:38:54;9.80;38.40
43995;DHT22;51687;52.160;5.298;2022-11-20T00:41:21;9.70;37.50
43995;DHT22;51687;52.160;5.298;2022-11-20T00:43:49;9.70;37.90
43995;DHT22;51687;52.160;5.298;2022-11-20T00:46:18;9.70;38.80
43995;DHT22;51687;52.160;5.298;2022-11-20T00:48:45;9.90;38.60
43995;DHT22;51687;52.160;5.298;2022-11-20T00:51:14;9.90;38.80
43995;DHT22;51687;52.160;5.298;2022-11-20T00:53:41;10.10;38.60
43995;DHT22;51687;52.160;5.298;2022-11-20T00:56:14;10.10;38.50
43995;DHT22;51687;52.160;5.298;2022-11-20T00:58:42;10.00;38.00
43995;DHT22;51687;52.160;5.298;2022-11-20T01:01:15;9.90;38.20
43995;DHT22;51687;52.160;5.298;2022-11-20T01:03:45;9.90;38.30
43995;DHT22;51687;52.160;5.298;2022-11-20T01:06:25;9.90;38.50
43995;DHT22;51687;52.160;5.298;2022-11-20T01:08:55;9.90;38.30
43995;DHT22;51687;52.160;5.298;2022-11-20T01:11:30;10.00;38.50
43995;DHT22;51687;52.160;5.298;2022-11-20T01:13:58;10.00;37.80
43995;DHT22;51687;52.160;5.298;2022-11-20T01:16:36;9.90;38.10
43995;DHT22;51687;52.160;5.298;2022-11-20T01:19:05;9.70;37.60
43995;DHT22;51687;52.160;5.298;2022-11-20T01:21:35;9.60;37.70
43995;DHT22;51687;52.160;5.298;2022-11-20T01:24:03;9.50;37.90
43995;DHT22;51687;52.160;5.298;2022-11-20T01:26:33;9.40;37.50
43995;DHT22;51687;52.160;5.298;2022-11-20T01:29:00;9.30;37.90
43995;DHT22;51687;52.160;5.298;2022-11-20T01:31:30;9.30;38.00
43995;DHT22;51687;52.160;5.298;2022-11-20T01:33:59;9.30;38.40
43995;DHT22;51687;52.160;5.298;2022-11-20T01:36:29;9.30;37.90
43995;DHT22;51687;52.160;5.298;2022-11-20T01:38:58;9.30;37.80
43995;DHT22;51687;52.160;5.298;2022-11-20T01:41:26;9.30;37.80
43995;DHT22;51687;52.160;5.298;2022-11-20T01:44:14;9.30;38.00
43995;DHT22;51687;52.160;5.298;2022-11-20T01:47:07;9.40;37.90
43995;DHT22;51687;52.160;5.298;2022-11-20T01:49:42;9.40;38.20
43995;DHT22;51687;52.160;5.298;2022-11-20T01:52:26;9.40;38.00
43995;DHT22;51687;52.160;5.298;2022-11-20T01:54:58;9.50;37.90
43995;DHT22;51687;52.160;5.298;2022-11-20T01:57:29;9.40;37.70
43995;DHT22;51687;52.160;5.298;2022-11-20T02:00:09;9.40;37.90
43995;DHT22;51687;52.160;5.298;2022-11-20T02:02:36;9.40;37.70
43995;DHT22;51687;52.160;5.298;2022-11-20T02:05:12;9.40;37.80
43995;DHT22;51687;52.160;5.298;2022-11-20T02:07:41;9.30;37.20
43995;DHT22;51687;52.160;5.298;2022-11-20T02:10:09;9.30;48.10
43995;DHT22;51687;52.160;5.298;2022-11-20T02:12:36;9.20;40.20
43995;DHT22;51687;52.160;5.298;2022-11-20T02:15:21;9.00;37.80
43995;DHT22;51687;52.160;5.298;2022-11-20T02:17:55;8.90;37.80
43995;DHT22;51687;52.160;5.298;2022-11-20T02:20:22;8.80;37.50
43995;DHT22;51687;52.160;5.298;2022-11-20T02:23:12;8.70;37.20
43995;DHT22;51687;52.160;5.298;2022-11-20T02:25:39;8.60;36.60
43995;DHT22;51687;52.160;5.298;2022-11-20T02:28:07;8.60;37.20
43995;DHT22;51687;52.160;5.298;2022-11-20T02:30:34;8.70;37.80
43995;DHT22;51687;52.160;5.298;2022-11-20T02:33:01;8.90;38.00
43995;DHT22;51687;52.160;5.298;2022-11-20T02:37:56;9.10;38.50
43995;DHT22;51687;52.160;5.298;2022-11-20T02:40:24;9.10;37.80
43995;DHT22;51687;52.160;5.298;2022-11-20T02:42:55;9.00;37.70
43995;DHT22;51687;52.160;5.298;2022-11-20T02:45:22;9.00;37.50
43995;DHT22;51687;52.160;5.298;2022-11-20T02:47:50;8.90;37.60
43995;DHT22;51687;52.160;5.298;2022-11-20T02:50:17;8.90;40.00
43995;DHT22;51687;52.160;5.298;2022-11-20T02:52:44;9.00;49.70
43995;DHT22;51687;52.160;5.298;2022-11-20T02:55:11;9.00;45.70
43995;DHT22;51687;52.160;5.298;2022-11-20T02:57:38;9.00;37.70
43995;DHT22;51687;52.160;5.298;2022-11-20T03:00:05;9.10;37.90
43995;DHT22;51687;52.160;5.298;2022-11-20T03:02:33;9.10;37.80
43995;DHT22;51687;52.160;5.298;2022-11-20T03:05:00;9.10;37.10
43995;DHT22;51687;52.160;5.298;2022-11-20T03:07:27;8.90;37.10
43995;DHT22;51687;52.160;5.298;2022-11-20T03:09:53;8.90;37.40
43995;DHT22;51687;52.160;5.298;2022-11-20T03:12:20;8.80;37.40
43995;DHT22;51687;52.160;5.298;2022-11-20T03:14:47;8.70;36.70
43995;DHT22;51687;52.160;5.298;2022-11-20T03:17:18;8.60;36.50
43995;DHT22;51687;52.160;5.298;2022-11-20T03:19:45;8.60;36.80
43995;DHT22;51687;52.160;5.298;2022-11-20T03:22:12;8.60;37.10
43995;DHT22;51687;52.160;5.298;2022-11-20T03:24:39;8.60;37.20
43995;DHT22;51687;52.160;5.298;2022-11-20T03:27:05;8.50;37.00
43995;DHT22;51687;52.160;5.298;2022-11-20T03:29:32;8.50;37.00
43995;DHT22;51687;52.160;5.298;2022-11-20T03:31:59;8.40;36.40
43995;DHT22;51687;52.160;5.298;2022-11-20T03:34:25;8.30;36.50
43995;DHT22;51687;52.160;5.298;2022-11-20T03:36:52;8.30;37.00
43995;DHT22;51687;52.160;5.298;2022-11-20T03:39:19;8.40;37.30
43995;DHT22;51687;52.160;5.298;2022-11-20T03:41:46;8.40;37.30
43995;DHT22;51687;52.160;5.298;2022-11-20T03:44:13;8.30;37.10
43995;DHT22;51687;52.160;5.298;2022-11-20T03:46:39;8.30;37.20
43995;DHT22;51687;52.160;5.298;2022-11-20T03:49:06;8.20;36.40
43995;DHT22;51687;52.160;5.298;2022-11-20T03:51:35;8.10;36.40
43995;DHT22;51687;52.160;5.298;2022-11-20T03:54:06;8.20;36.90
43995;DHT22;51687;52.160;5.298;2022-11-20T03:56:35;8.30;37.10
43995;DHT22;51687;52.160;5.298;2022-11-20T03:59:04;8.50;37.50
43995;DHT22;51687;52.160;5.298;2022-11-20T04:01:34;8.70;37.40
43995;DHT22;51687;52.160;5.298;2022-11-20T04:04:01;8.80;37.30
43995;DHT22;51687;52.160;5.298;2022-11-20T04:06:35;8.70;37.10
43995;DHT22;51687;52.160;5.298;2022-11-20T04:09:02;8.60;36.70
43995;DHT22;51687;52.160;5.298;2022-11-20T04:11:30;8.60;37.40
43995;DHT22;51687;52.160;5.298;2022-11-20T04:14:03;8.60;37.20
43995;DHT22;51687;52.160;5.298;2022-11-20T04:16:35;8.50;37.20
43995;DHT22;51687;52.160;5.298;2022-11-20T04:19:04;8.50;36.80
43995;DHT22;51687;52.160;5.298;2022-11-20T04:21:31;8.50;37.00
43995;DHT22;51687;52.160;5.298;2022-11-20T04:23:58;8.40;36.10
43995;DHT22;51687;52.160;5.298;2022-11-20T04:26:29;8.40;36.00
43995;DHT22;51687;52.160;5.298;2022-11-20T04:28:57;8.30;36.30
43995;DHT22;51687;52.160;5.298;2022-11-20T04:31:27;8.30;37.40
43995;DHT22;51687;52.160;5.298;2022-11-20T04:33:55;8.40;37.80
43995;DHT22;51687;52.160;5.298;2022-11-20T04:36:26;8.60;37.50
43995;DHT22;51687;52.160;5.298;2022-11-20T04:38:54;8.60;37.00
43995;DHT22;51687;52.160;5.298;2022-11-20T04:41:25;8.50;37.30
43995;DHT22;51687;52.160;5.298;2022-11-20T04:43:53;8.50;37.40
43995;DHT22;51687;52.160;5.298;2022-11-20T04:46:26;8.50;37.00
43995;DHT22;51687;52.160;5.298;2022-11-20T04:48:53;8.50;37.20
43995;DHT22;51687;52.160;5.298;2022-11-20T04:51:20;8.60;37.60
43995;DHT22;51687;52.160;5.298;2022-11-20T04:53:47;8.60;37.10
43995;DHT22;51687;52.160;5.298;2022-11-20T04:56:14;8.60;36.70
43995;DHT22;51687;52.160;5.298;2022-11-20T04:58:41;8.60;36.50
43995;DHT22;51687;52.160;5.298;2022-11-20T05:01:12;8.70;36.30
43995;DHT22;51687;52.160;5.298;2022-11-20T05:03:41;8.70;35.90
43995;DHT22;51687;52.160;5.298;2022-11-20T05:06:10;8.60;36.30
43995;DHT22;51687;52.160;5.298;2022-11-20T05:08:36;8.50;36.10
43995;DHT22;51687;52.160;5.298;2022-11-20T05:11:06;8.60;36.70
43995;DHT22;51687;52.160;5.298;2022-11-20T05:13:33;8.50;36.40
43995;DHT22;51687;52.160;5.298;2022-11-20T05:16:17;8.50;36.10
43995;DHT22;51687;52.160;5.298;2022-11-20T05:18:45;8.50;36.40
43995;DHT22;51687;52.160;5.298;2022-11-20T05:21:12;8.70;37.00
43995;DHT22;51687;52.160;5.298;2022-11-20T05:23:40;8.80;36.90
43995;DHT22;51687;52.160;5.298;2022-11-20T05:26:11;8.80;36.40
43995;DHT22;51687;52.160;5.298;2022-11-20T05:28:39;8.90;36.60
43995;DHT22;51687;52.160;5.298;2022-11-20T05:31:11;8.90;36.50
43995;DHT22;51687;52.160;5.298;2022-11-20T05:33:41;8.70;36.10
43995;DHT22;51687;52.160;5.298;2022-11-20T05:36:08;8.80;36.60
43995;DHT22;51687;52.160;5.298;2022-11-20T05:38:35;8.90;36.40
43995;DHT22;51687;52.160;5.298;2022-11-20T05:43:36;8.80;35.10
43995;DHT22;51687;52.160;5.298;2022-11-20T05:46:04;8.80;35.60
43995;DHT22;51687;52.160;5.298;2022-11-20T05:48:33;8.80;35.60
43995;DHT22;51687;52.160;5.298;2022-11-20T05:51:01;8.90;36.00
43995;DHT22;51687;52.160;5.298;2022-11-20T05:53:28;8.90;36.10
43995;DHT22;51687;52.160;5.298;2022-11-20T05:56:03;8.90;36.30
43995;DHT22;51687;52.160;5.298;2022-11-20T05:58:31;8.70;35.50
43995;DHT22;51687;52.160;5.298;2022-11-20T06:01:11;8.60;35.70
43995;DHT22;51687;52.160;5.298;2022-11-20T06:03:38;8.50;35.70
43995;DHT22;51687;52.160;5.298;2022-11-20T06:06:06;8.50;36.40
43995;DHT22;51687;52.160;5.298;2022-11-20T06:08:33;8.50;36.00
43995;DHT22;51687;52.160;5.298;2022-11-20T06:11:05;8.50;35.70
43995;DHT22;51687;52.160;5.298;2022-11-20T06:13:32;8.60;35.50
43995;DHT22;51687;52.160;5.298;2022-11-20T06:16:03;8.60;36.00
43995;DHT22;51687;52.160;5.298;2022-11-20T06:18:30;8.50;35.80
43995;DHT22;51687;52.160;5.298;2022-11-20T06:21:12;8.40;35.90
43995;DHT22;51687;52.160;5.298;2022-11-20T06:23:39;8.40;35.90
43995;DHT22;51687;52.160;5.298;2022-11-20T06:26:08;8.40;36.60
43995;DHT22;51687;52.160;5.298;2022-11-20T06:28:35;8.50;36.80
43995;DHT22;51687;52.160;5.298;2022-11-20T06:31:05;8.60;39.80
43995;DHT22;51687;52.160;5.298;2022-11-20T06:33:32;8.60;36.90
43995;DHT22;51687;52.160;5.298;2022-11-20T06:36:03;8.80;37.10
43995;DHT22;51687;52.160;5.298;2022-11-20T06:38:36;8.80;35.70
43995;DHT22;51687;52.160;5.298;2022-11-20T06:41:06;8.80;36.10
43995;DHT22;51687;52.160;5.298;2022-11-20T06:43:33;8.70;35.50
43995;DHT22;51687;52.160;5.298;2022-11-20T06:46:00;8.60;36.00
43995;DHT22;51687;52.160;5.298;2022-11-20T06:48:28;8.60;36.30
43995;DHT22;51687;52.160;5.298;2022-11-20T06:50:56;8.60;36.20
43995;DHT22;51687;52.160;5.298;2022-11-20T06:53:23;8.60;36.00
43995;DHT22;51687;52.160;5.298;2022-11-20T06:55:51;8.50;36.20
43995;DHT22;51687;52.160;5.298;2022-11-20T06:58:18;8.60;36.40
43995;DHT22;51687;52.160;5.298;2022-11-20T07:00:45;8.60;35.50
43995;DHT22;51687;52.160;5.298;2022-11-20T07:03:12;8.60;34.80
43995;DHT22;51687;52.160;5.298;2022-11-20T07:05:39;8.60;34.60
43995;DHT22;51687;52.160;5.298;2022-11-20T07:08:07;8.50;34.50
43995;DHT22;51687;52.160;5.298;2022-11-20T07:10:33;8.30;34.70
43995;DHT22;51687;52.160;5.298;2022-11-20T07:13:00;8.20;34.80
43995;DHT22;51687;52.160;5.298;2022-11-20T07:15:27;8.10;35.20
43995;DHT22;51687;52.160;5.298;2022-11-20T07:17:54;7.90;35.40
43995;DHT22;51687;52.160;5.298;2022-11-20T07:20:20;7.80;35.80
43995;DHT22;51687;52.160;5.298;2022-11-20T07:22:53;7.70;36.10
43995;DHT22;51687;52.160;5.298;2022-11-20T07:25:21;7.50;36.20
43995;DHT22;51687;52.160;5.298;2022-11-20T07:27:47;7.40;36.50
43995;DHT22;51687;52.160;5.298;2022-11-20T07:30:15;7.30;36.90
43995;DHT22;51687;52.160;5.298;2022-11-20T07:32:42;7.20;37.30
43995;DHT22;51687;52.160;5.298;2022-11-20T07:35:09;7.10;37.70
43995;DHT22;51687;52.160;5.298;2022-11-20T07:37:35;7.00;38.00
43995;DHT22;51687;52.160;5.298;2022-11-20T07:40:03;6.90;38.50
43995;DHT22;51687;52.160;5.298;2022-11-20T07:42:30;6.80;38.60
43995;DHT22;51687;52.160;5.298;2022-11-20T07:44:56;6.80;39.00
43995;DHT22;51687;52.160;5.298;2022-11-20T07:47:23;6.70;39.30
43995;DHT22;51687;52.160;5.298;2022-11-20T07:49:50;6.60;39.70
43995;DHT22;51687;52.160;5.298;2022-11-20T07:52:17;6.50;40.10
43995;DHT22;51687;52.160;5.298;2022-11-20T07:54:43;6.40;40.60
43995;DHT22;51687;52.160;5.298;2022-11-20T07:57:10;6.30;41.00
43995;DHT22;51687;52.160;5.298;2022-11-20T07:59:37;6.10;41.40
43995;DHT22;51687;52.160;5.298;2022-11-20T08:02:05;6.00;42.00
43995;DHT22;51687;52.160;5.298;2022-11-20T08:04:32;5.90;42.50
43995;DHT22;51687;52.160;5.298;2022-11-20T08:06:59;5.90;42.80
43995;DHT22;51687;52.160;5.298;2022-11-20T08:09:26;5.90;43.10
43995;DHT22;51687;52.160;5.298;2022-11-20T08:11:53;5.90;43.50
43995;DHT22;51687;52.160;5.298;2022-11-20T08:14:38;5.80;43.70
43995;DHT22;51687;52.160;5.298;2022-11-20T08:17:05;5.80;43.90
43995;DHT22;51687;52.160;5.298;2022-11-20T08:19:32;5.80;44.50
43995;DHT22;51687;52.160;5.298;2022-11-20T08:21:59;5.80;44.90
43995;DHT22;51687;52.160;5.298;2022-11-20T08:24:26;5.70;45.20
43995;DHT22;51687;52.160;5.298;2022-11-20T08:26:53;5.80;45.60
43995;DHT22;51687;52.160;5.298;2022-11-20T08:29:19;5.70;46.10
43995;DHT22;51687;52.160;5.298;2022-11-20T08:31:46;5.70;46.50
43995;DHT22;51687;52.160;5.298;2022-11-20T08:34:14;5.80;46.80
43995;DHT22;51687;52.160;5.298;2022-11-20T08:36:44;5.80;46.90
43995;DHT22;51687;52.160;5.298;2022-11-20T08:39:12;5.90;47.00
43995;DHT22;51687;52.160;5.298;2022-11-20T08:41:38;6.00;47.50
43995;DHT22;51687;52.160;5.298;2022-11-20T08:44:07;6.00;47.20
43995;DHT22;51687;52.160;5.298;2022-11-20T08:46:37;6.00;47.30
43995;DHT22;51687;52.160;5.298;2022-11-20T08:49:05;6.10;47.50
43995;DHT22;51687;52.160;5.298;2022-11-20T08:51:33;6.10;47.80
43995;DHT22;51687;52.160;5.298;2022-11-20T08:54:00;6.10;47.90
43995;DHT22;51687;52.160;5.298;2022-11-20T08:56:27;6.00;48.30
43995;DHT22;51687;52.160;5.298;2022-11-20T08:58:54;6.00;48.60
43995;DHT22;51687;52.160;5.298;2022-11-20T09:01:41;6.00;48.90
43995;DHT22;51687;52.160;5.298;2022-11-20T09:04:08;5.90;49.30
43995;DHT22;51687;52.160;5.298;2022-11-20T09:06:35;5.80;49.90
43995;DHT22;51687;52.160;5.298;2022-11-20T09:09:01;5.70;50.40
43995;DHT22;51687;52.160;5.298;2022-11-20T09:11:33;5.70;50.80
43995;DHT22;51687;52.160;5.298;2022-11-20T09:14:00;5.60;51.00
43995;DHT22;51687;52.160;5.298;2022-11-20T09:16:29;5.70;51.40
43995;DHT22;51687;52.160;5.298;2022-11-20T09:18:56;5.80;51.40
43995;DHT22;51687;52.160;5.298;2022-11-20T09:21:43;5.80;51.20
43995;DHT22;51687;52.160;5.298;2022-11-20T09:24:09;5.80;51.10
43995;DHT22;51687;52.160;5.298;2022-11-20T09:26:36;5.90;51.30
43995;DHT22;51687;52.160;5.298;2022-11-20T09:29:03;6.00;51.30
43995;DHT22;51687;52.160;5.298;2022-11-20T09:31:30;6.00;51.50
43995;DHT22;51687;52.160;5.298;2022-11-20T09:33:56;6.00;51.60
43995;DHT22;51687;52.160;5.298;2022-11-20T09:36:23;6.10;51.90
43995;DHT22;51687;52.160;5.298;2022-11-20T09:38:50;6.10;51.90
43995;DHT22;51687;52.160;5.298;2022-11-20T09:47:01;6.30;52.10
43995;DHT22;51687;52.160;5.298;2022-11-20T09:52:22;6.30;52.40
43995;DHT22;51687;52.160;5.298;2022-11-20T09:54:54;6.40;52.30
43995;DHT22;51687;52.160;5.298;2022-11-20T09:57:37;6.40;52.40
43995;DHT22;51687;52.160;5.298;2022-11-20T10:00:09;6.50;52.70
43995;DHT22;51687;52.160;5.298;2022-11-20T10:02:52;6.50;52.70
43995;DHT22;51687;52.160;5.298;2022-11-20T10:05:27;6.60;52.90
43995;DHT22;51687;52.160;5.298;2022-11-20T10:08:23;6.60;52.90
43995;DHT22;51687;52.160;5.298;2022-11-20T10:10:52;6.70;53.10
43995;DHT22;51687;52.160;5.298;2022-11-20T10:25:16;7.20;52.50
43995;DHT22;51687;52.160;5.298;2022-11-20T10:28:05;7.20;52.80
43995;DHT22;51687;52.160;5.298;2022-11-20T10:30:39;7.30;52.80
43995;DHT22;51687;52.160;5.298;2022-11-20T10:33:21;7.30;52.80
43995;DHT22;51687;52.160;5.298;2022-11-20T10:41:33;7.20;53.50
43995;DHT22;51687;52.160;5.298;2022-11-20T10:44:22;7.30;53.80
43995;DHT22;51687;52.160;5.298;2022-11-20T10:47:15;7.20;54.00
43995;DHT22;51687;52.160;5.298;2022-11-20T10:49:48;7.30;54.30
43995;DHT22;51687;52.160;5.298;2022-11-20T10:58:14;7.30;54.60
43995;DHT22;51687;52.160;5.298;2022-11-20T11:00:41;7.30;55.00
43995;DHT22;51687;52.160;5.298;2022-11-20T11:03:26;7.40;54.70
43995;DHT22;51687;52.160;5.298;2022-11-20T11:08:35;7.50;55.40
43995;DHT22;51687;52.160;5.298;2022-11-20T11:11:24;7.60;60.50
43995;DHT22;51687;52.160;5.298;2022-11-20T11:13:52;7.40;55.40
43995;DHT22;51687;52.160;5.298;2022-11-20T11:16:25;7.40;55.30
43995;DHT22;51687;52.160;5.298;2022-11-20T11:19:02;7.50;57.50
43995;DHT22;51687;52.160;5.298;2022-11-20T11:21:29;7.50;55.40
43995;DHT22;51687;52.160;5.298;2022-11-20T11:24:02;7.50;55.40
43995;DHT22;51687;52.160;5.298;2022-11-20T11:27:00;7.50;55.50
43995;DHT22;51687;52.160;5.298;2022-11-20T11:29:38;7.50;55.60
43995;DHT22;51687;52.160;5.298;2022-11-20T11:32:15;7.50;55.30
43995;DHT22;51687;52.160;5.298;2022-11-20T11:34:42;7.50;55.60
43995;DHT22;51687;52.160;5.298;2022-11-20T11:37:20;7.50;55.50
43995;DHT22;51687;52.160;5.298;2022-11-20T11:39:51;7.40;55.70
43995;DHT22;51687;52.160;5.298;2022-11-20T11:42:46;7.50;55.70
43995;DHT22;51687;52.160;5.298;2022-11-20T11:45:16;7.50;55.80
43995;DHT22;51687;52.160;5.298;2022-11-20T11:47:45;7.60;57.60
43995;DHT22;51687;52.160;5.298;2022-11-20T11:53:04;7.60;56.00
43995;DHT22;51687;52.160;5.298;2022-11-20T11:58:33;7.60;56.40
43995;DHT22;51687;52.160;5.298;2022-11-20T12:01:20;7.60;56.40
43995;DHT22;51687;52.160;5.298;2022-11-20T12:07:02;7.70;57.20
43995;DHT22;51687;52.160;5.298;2022-11-20T12:09:54;7.70;57.20
43995;DHT22;51687;52.160;5.298;2022-11-20T12:12:28;7.70;57.30
43995;DHT22;51687;52.160;5.298;2022-11-20T12:14:57;7.70;57.60
43995;DHT22;51687;52.160;5.298;2022-11-20T12:17:24;7.70;57.70
43995;DHT22;51687;52.160;5.298;2022-11-20T12:19:51;7.70;57.80
43995;DHT22;51687;52.160;5.298;2022-11-20T12:25:16;7.70;58.40
43995;DHT22;51687;52.160;5.298;2022-11-20T12:30:32;7.80;58.60
43995;DHT22;51687;52.160;5.298;2022-11-20T12:33:12;7.80;58.50
43995;DHT22;51687;52.160;5.298;2022-11-20T13:02:26;8.60;59.50
43995;DHT22;51687;52.160;5.298;2022-11-20T13:05:07;8.80;59.80
43995;DHT22;51687;52.160;5.298;2022-11-20T13:07:38;8.90;59.10
43995;DHT22;51687;52.160;5.298;2022-11-20T13:10:05;9.10;59.10
43995;DHT22;51687;52.160;5.298;2022-11-20T13:12:47;9.20;58.70
43995;DHT22;51687;52.160;5.298;2022-11-20T13:18:00;9.40;57.60
43995;DHT22;51687;52.160;5.298;2022-11-20T13:20:29;9.60;71.50
43995;DHT22;51687;52.160;5.298;2022-11-20T13:22:58;9.60;60.50
43995;DHT22;51687;52.160;5.298;2022-11-20T13:25:43;9.60;57.80
43995;DHT22;51687;52.160;5.298;2022-11-20T13:30:50;9.70;57.00
43995;DHT22;51687;52.160;5.298;2022-11-20T13:36:01;9.90;57.50
43995;DHT22;51687;52.160;5.298;2022-11-20T13:38:43;9.90;56.80
43995;DHT22;51687;52.160;5.298;2022-11-20T13:41:10;10.00;56.40
43995;DHT22;51687;52.160;5.298;2022-11-20T13:44:15;10.00;56.40
43995;DHT22;51687;52.160;5.298;2022-11-20T13:46:48;10.10;57.20
43995;DHT22;51687;52.160;5.298;2022-11-20T13:49:20;10.20;56.70
43995;DHT22;51687;52.160;5.298;2022-11-20T13:51:53;10.20;55.80
43995;DHT22;51687;52.160;5.298;2022-11-20T14:00:07;10.30;55.70
43995;DHT22;51687;52.160;5.298;2022-11-20T14:02:36;10.30;55.30
43995;DHT22;51687;52.160;5.298;2022-11-20T14:05:04;10.30;56.30
43995;DHT22;51687;52.160;5.298;2022-11-20T14:07:41;10.30;55.40
43995;DHT22;51687;52.160;5.298;2022-11-20T14:10:29;10.30;55.70
43995;DHT22;51687;52.160;5.298;2022-11-20T14:12:58;10.40;55.90
43995;DHT22;51687;52.160;5.298;2022-11-20T14:15:32;10.40;55.80
43995;DHT22;51687;52.160;5.298;2022-11-20T14:18:00;10.70;69.10
43995;DHT22;51687;52.160;5.298;2022-11-20T14:20:38;10.50;55.90
43995;DHT22;51687;52.160;5.298;2022-11-20T14:23:09;10.60;56.60
43995;DHT22;51687;52.160;5.298;2022-11-20T14:25:37;10.80;65.70
43995;DHT22;51687;52.160;5.298;2022-11-20T14:28:25;10.80;55.50
43995;DHT22;51687;52.160;5.298;2022-11-20T14:30:52;10.90;54.80
43995;DHT22;51687;52.160;5.298;2022-11-20T14:33:20;10.90;54.10
43995;DHT22;51687;52.160;5.298;2022-11-20T14:35:55;10.80;54.00
43995;DHT22;51687;52.160;5.298;2022-11-20T14:38:28;10.80;54.30
43995;DHT22;51687;52.160;5.298;2022-11-20T14:41:07;10.80;54.80
43995;DHT22;51687;52.160;5.298;2022-11-20T14:43:34;10.80;54.70
43995;DHT22;51687;52.160;5.298;2022-11-20T14:46:05;10.90;57.90
43995;DHT22;51687;52.160;5.298;2022-11-20T14:48:42;11.00;55.90
43995;DHT22;51687;52.160;5.298;2022-11-20T14:51:11;11.00;54.50
43995;DHT22;51687;52.160;5.298;2022-11-20T14:53:38;10.90;54.20
43995;DHT22;51687;52.160;5.298;2022-11-20T14:56:05;10.90;54.60
43995;DHT22;51687;52.160;5.298;2022-11-20T14:58:34;10.80;54.70
43995;DHT22;51687;52.160;5.298;2022-11-20T15:01:04;10.90;54.80
43995;DHT22;51687;52.160;5.298;2022-11-20T15:03:35;10.90;54.90
43995;DHT22;51687;52.160;5.298;2022-11-20T15:06:04;10.90;54.60
43995;DHT22;51687;52.160;5.298;2022-11-20T15:08:31;10.90;54.50
43995;DHT22;51687;52.160;5.298;2022-11-20T15:10:58;10.80;54.90
43995;DHT22;51687;52.160;5.298;2022-11-20T15:13:31;10.80;54.60
43995;DHT22;51687;52.160;5.298;2022-11-20T15:16:00;10.80;54.40
43995;DHT22;51687;52.160;5.298;2022-11-20T15:18:28;10.80;54.80
43995;DHT22;51687;52.160;5.298;2022-11-20T15:20:58;10.80;55.60
43995;DHT22;51687;52.160;5.298;2022-11-20T15:23:27;10.80;55.20
43995;DHT22;51687;52.160;5.298;2022-11-20T15:25:55;10.80;55.40
43995;DHT22;51687;52.160;5.298;2022-11-20T15:28:31;10.90;55.80
43995;DHT22;51687;52.160;5.298;2022-11-20T15:31:00;10.90;54.90
43995;DHT22;51687;52.160;5.298;2022-11-20T15:33:27;10.90;55.60
43995;DHT22;51687;52.160;5.298;2022-11-20T15:35:55;11.00;55.10
43995;DHT22;51687;52.160;5.298;2022-11-20T15:38:21;11.00;55.40
43995;DHT22;51687;52.160;5.298;2022-11-20T15:40:48;11.10;57.80
43995;DHT22;51687;52.160;5.298;2022-11-20T15:43:15;11.10;55.50
43995;DHT22;51687;52.160;5.298;2022-11-20T15:45:51;11.10;54.90
43995;DHT22;51687;52.160;5.298;2022-11-20T15:48:31;11.20;54.40
43995;DHT22;51687;52.160;5.298;2022-11-20T15:53:41;11.20;54.40
43995;DHT22;51687;52.160;5.298;2022-11-20T15:56:12;11.30;55.00
43995;DHT22;51687;52.160;5.298;2022-11-20T15:58:40;11.30;55.00
43995;DHT22;51687;52.160;5.298;2022-11-20T16:01:15;11.40;55.40
43995;DHT22;51687;52.160;5.298;2022-11-20T16:03:42;11.50;54.90
43995;DHT22;51687;52.160;5.298;2022-11-20T16:06:09;11.60;54.70
43995;DHT22;51687;52.160;5.298;2022-11-20T16:08:36;11.70;54.60
43995;DHT22;51687;52.160;5.298;2022-11-20T16:11:03;11.70;54.40
43995;DHT22;51687;52.160;5.298;2022-11-20T16:13:31;11.70;54.10
43995;DHT22;51687;52.160;5.298;2022-11-20T16:16:25;11.80;54.10
43995;DHT22;51687;52.160;5.298;2022-11-20T16:18:55;11.80;54.00
43995;DHT22;51687;52.160;5.298;2022-11-20T16:21:22;11.90;54.90
43995;DHT22;51687;52.160;5.298;2022-11-20T16:24:04;12.00;54.20
43995;DHT22;51687;52.160;5.298;2022-11-20T16:26:34;12.00;53.30
43995;DHT22;51687;52.160;5.298;2022-11-20T16:29:01;12.00;53.50
43995;DHT22;51687;52.160;5.298;2022-11-20T16:31:29;12.00;57.80
43995;DHT22;51687;52.160;5.298;2022-11-20T16:33:57;12.00;54.80
43995;DHT22;51687;52.160;5.298;2022-11-20T16:36:26;12.10;54.50
43995;DHT22;51687;52.160;5.298;2022-11-20T16:39:01;12.10;53.70
43995;DHT22;51687;52.160;5.298;2022-11-20T16:41:30;12.20;53.20
43995;DHT22;51687;52.160;5.298;2022-11-20T16:43:59;12.20;53.50
43995;DHT22;51687;52.160;5.298;2022-11-20T16:46:28;12.20;54.00
43995;DHT22;51687;52.160;5.298;2022-11-20T16:48:59;12.30;56.10
43995;DHT22;51687;52.160;5.298;2022-11-20T16:51:28;12.20;53.60
43995;DHT22;51687;52.160;5.298;2022-11-20T16:53:55;12.20;53.10
43995;DHT22;51687;52.160;5.298;2022-11-20T16:56:25;12.20;53.90
43995;DHT22;51687;52.160;5.298;2022-11-20T16:58:56;12.10;53.30
43995;DHT22;51687;52.160;5.298;2022-11-20T17:01:24;12.00;52.70
43995;DHT22;51687;52.160;5.298;2022-11-20T17:04:03;11.70;53.00
43995;DHT22;51687;52.160;5.298;2022-11-20T17:06:32;11.40;53.70
43995;DHT22;51687;52.160;5.298;2022-11-20T17:09:02;11.10;54.40
43995;DHT22;51687;52.160;5.298;2022-11-20T17:13:59;10.60;55.60
43995;DHT22;51687;52.160;5.298;2022-11-20T17:16:26;10.60;56.60
43995;DHT22;51687;52.160;5.298;2022-11-20T17:18:55;10.60;57.20
43995;DHT22;51687;52.160;5.298;2022-11-20T17:21:28;10.80;57.20
43995;DHT22;51687;52.160;5.298;2022-11-20T17:24:02;10.90;57.20
43995;DHT22;51687;52.160;5.298;2022-11-20T17:26:31;11.10;56.90
43995;DHT22;51687;52.160;5.298;2022-11-20T17:29:04;11.20;56.50
43995;DHT22;51687;52.160;5.298;2022-11-20T17:31:32;11.40;56.30
43995;DHT22;51687;52.160;5.298;2022-11-20T17:33:59;11.50;56.00
43995;DHT22;51687;52.160;5.298;2022-11-20T17:36:28;11.60;56.10
43995;DHT22;51687;52.160;5.298;2022-11-20T17:38:59;11.70;55.60
43995;DHT22;51687;52.160;5.298;2022-11-20T17:41:27;11.70;55.00
43995;DHT22;51687;52.160;5.298;2022-11-20T17:43:58;11.80;54.70